Time;durP1;ratioP1;P1;durP2;ratioP2;P2;SDS_P1;SDS_P2;PMS_P1;PMS_P2;Temp;Humidity;BMP_temperature;BMP_pressure;BME280_temperature;BME280_humidity;BME280_pressure;Samples;Min_cycle;Max_cycle;Signal;HPM_P1;HPM_P2
2022/10/06 00:01:04;;;;;;;4.18;1.80;;;16.10;99.90;;;;;;4866437;29;20188;-86
2022/10/06 00:03:30;;;;;;;3.08;1.67;;;16.10;99.90;;;;;;4882923;29;20156;-84
2022/10/06 00:06:03;;;;;;;3.85;1.88;;;16.10;99.90;;;;;;4883019;29;20191;-85
2022/10/06 00:08:31;;;;;;;6.50;1.60;;;16.10;99.90;;;;;;4883264;29;20232;-85
2022/10/06 00:10:57;;;;;;;8.95;1.63;;;16.00;99.90;;;;;;4865631;29;20327;-85
2022/10/06 00:13:24;;;;;;;2.25;1.40;;;16.00;99.90;;;;;;4866116;29;20586;-85
2022/10/06 00:15:50;;;;;;;3.40;1.40;;;16.00;99.90;;;;;;4866163;29;20542;-88
2022/10/06 00:18:18;;;;;;;2.55;1.73;;;15.90;99.90;;;;;;4866047;29;20187;-84
2022/10/06 00:20:44;;;;;;;1.85;1.30;;;16.00;99.90;;;;;;4866036;29;20524;-84
2022/10/06 00:23:10;;;;;;;5.45;1.50;;;16.00;99.90;;;;;;4882461;29;20189;-83
2022/10/06 00:25:36;;;;;;;2.35;1.50;;;16.00;99.90;;;;;;4865547;29;20615;-84
2022/10/06 00:28:02;;;;;;;3.03;1.52;;;16.00;99.90;;;;;;4882697;29;20184;-88
2022/10/06 00:30:30;;;;;;;3.30;1.65;;;16.10;99.90;;;;;;4876646;29;20191;-89
2022/10/06 00:33:01;;;;;;;2.08;1.40;;;16.10;99.90;;;;;;4881158;29;20530;-86
2022/10/06 00:35:32;;;;;;;2.17;1.48;;;16.10;99.90;;;;;;4881080;29;20218;-84
2022/10/06 00:38:01;;;;;;;2.45;1.40;;;16.10;99.90;;;;;;4881900;29;20172;-85
2022/10/06 00:40:27;;;;;;;1.77;1.40;;;16.00;99.90;;;;;;4882011;29;20638;-84
2022/10/06 00:42:54;;;;;;;3.40;1.65;;;16.00;99.90;;;;;;4880764;29;20184;-85
2022/10/06 00:45:44;;;;;;;6.43;1.63;;;16.00;99.90;;;;;;4881969;29;20296;-86
2022/10/06 00:48:37;;;;;;;3.92;1.60;;;16.00;99.90;;;;;;4880359;29;20188;-84
2022/10/06 00:51:04;;;;;;;3.65;1.67;;;16.10;99.90;;;;;;4879411;29;20200;-84
2022/10/06 00:53:31;;;;;;;3.83;1.45;;;16.20;99.90;;;;;;4881857;29;20184;-82
2022/10/06 00:55:57;;;;;;;5.13;1.60;;;16.30;99.90;;;;;;4881664;29;20204;-84
2022/10/06 00:58:23;;;;;;;5.78;1.70;;;16.40;99.90;;;;;;4882022;29;20187;-85
2022/10/06 01:00:54;;;;;;;2.30;1.58;;;16.40;99.90;;;;;;4866854;29;20200;-84
2022/10/06 01:03:36;;;;;;;1.95;1.52;;;16.50;99.90;;;;;;4865083;29;20236;-82
2022/10/06 01:06:02;;;;;;;5.93;1.90;;;16.60;99.90;;;;;;4881784;29;20263;-83
2022/10/06 01:08:29;;;;;;;3.25;1.40;;;16.60;99.90;;;;;;4881940;29;20172;-85
2022/10/06 01:10:55;;;;;;;4.28;1.13;;;16.70;99.90;;;;;;4881346;29;20223;-85
2022/10/06 01:13:22;;;;;;;3.75;0.80;;;16.70;99.90;;;;;;4881542;29;20600;-83
2022/10/06 01:16:04;;;;;;;5.90;0.70;;;16.60;99.90;;;;;;4865050;29;20647;-83
2022/10/06 01:18:31;;;;;;;0.50;0.40;;;16.20;99.90;;;;;;4865437;29;20183;-84
2022/10/06 01:21:10;;;;;;;3.25;0.50;;;15.90;99.90;;;;;;4864992;29;20222;-87
2022/10/06 01:23:37;;;;;;;0.30;0.30;;;15.70;99.90;;;;;;4864915;29;20183;-84
2022/10/06 01:26:07;;;;;;;1.10;0.40;;;15.50;99.90;;;;;;4864560;29;20187;-88
2022/10/06 01:28:33;;;;;;;1.27;0.40;;;15.30;99.90;;;;;;4881835;29;20169;-87
2022/10/06 01:31:00;;;;;;;0.73;0.30;;;15.10;99.90;;;;;;4847053;29;20196;-87
2022/10/06 01:33:28;;;;;;;1.70;0.30;;;14.90;99.90;;;;;;4846187;29;20210;-85
2022/10/06 01:35:54;;;;;;;1.15;0.32;;;14.90;99.90;;;;;;4846286;29;20226;-87
2022/10/06 01:38:21;;;;;;;2.47;0.43;;;14.80;99.90;;;;;;4863108;29;20181;-86
2022/10/06 01:40:49;;;;;;;0.40;0.25;;;14.80;99.90;;;;;;4845953;29;20184;-88
2022/10/06 01:43:14;;;;;;;0.10;0.10;;;14.70;99.90;;;;;;4846263;29;20219;-86
2022/10/06 01:45:40;;;;;;;1.80;0.30;;;14.70;99.90;;;;;;4862642;29;20196;-85
2022/10/06 01:48:07;;;;;;;1.13;0.28;;;14.60;99.90;;;;;;4846117;29;20177;-85
2022/10/06 01:50:33;;;;;;;0.30;0.20;;;14.60;99.90;;;;;;4845606;29;20185;-86
2022/10/06 01:52:58;;;;;;;0.73;0.30;;;14.60;99.90;;;;;;4845964;29;20240;-87
2022/10/06 01:55:24;;;;;;;2.22;0.30;;;14.60;99.90;;;;;;4845472;29;20303;-86
2022/10/06 01:57:50;;;;;;;0.95;0.20;;;14.70;99.90;;;;;;4845396;29;20240;-84
2022/10/06 02:00:17;;;;;;;0.10;0.10;;;14.60;99.90;;;;;;4874888;29;20268;-85
2022/10/06 02:02:43;;;;;;;2.15;0.40;;;14.70;99.90;;;;;;4880803;29;20176;-85
2022/10/06 02:05:09;;;;;;;2.05;0.30;;;14.60;99.90;;;;;;4864080;29;20176;-87
2022/10/06 02:07:35;;;;;;;0.77;0.30;;;14.60;99.90;;;;;;4864088;29;20184;-85
2022/10/06 02:10:01;;;;;;;0.32;0.30;;;14.60;99.90;;;;;;4863837;29;20322;-85
2022/10/06 02:12:30;;;;;;;1.38;0.30;;;14.60;99.90;;;;;;4863884;29;20520;-85
2022/10/06 02:14:56;;;;;;;1.23;0.40;;;14.60;99.90;;;;;;4863946;29;20211;-87
2022/10/06 02:17:22;;;;;;;0.98;0.40;;;14.50;99.90;;;;;;4880727;29;20703;-86
2022/10/06 02:19:48;;;;;;;1.23;0.30;;;14.60;99.90;;;;;;4863957;29;20268;-85
2022/10/06 02:22:14;;;;;;;0.45;0.30;;;14.60;99.90;;;;;;4863834;29;20628;-85
2022/10/06 02:24:40;;;;;;;0.30;0.30;;;14.60;99.90;;;;;;4863918;29;20232;-86
2022/10/06 02:27:06;;;;;;;0.40;0.30;;;14.60;99.90;;;;;;4864059;29;20180;-85
2022/10/06 02:29:33;;;;;;;4.93;0.50;;;14.60;99.90;;;;;;4856871;29;20184;-86
2022/10/06 02:31:58;;;;;;;0.63;0.30;;;14.50;99.90;;;;;;4862207;29;20601;-83
2022/10/06 02:34:24;;;;;;;0.82;0.20;;;14.60;99.90;;;;;;4861756;29;20188;-85
2022/10/06 02:36:50;;;;;;;2.45;0.60;;;14.50;99.90;;;;;;4845301;29;20536;-83
2022/10/06 02:39:15;;;;;;;4.03;0.45;;;14.50;99.90;;;;;;4845478;29;20236;-85
2022/10/06 02:41:41;;;;;;;0.57;0.30;;;14.50;99.90;;;;;;4861621;29;20608;-85
2022/10/06 02:44:08;;;;;;;1.63;0.45;;;14.50;99.90;;;;;;4845204;29;20184;-86
2022/10/06 02:46:33;;;;;;;4.10;0.63;;;14.50;99.90;;;;;;4845181;29;20169;-85
2022/10/06 02:48:59;;;;;;;3.95;0.60;;;14.50;99.90;;;;;;4845158;29;20251;-87
2022/10/06 02:51:25;;;;;;;2.35;0.30;;;14.40;99.90;;;;;;4864796;29;20639;-86
2022/10/06 02:53:51;;;;;;;3.53;0.40;;;14.50;99.90;;;;;;4863657;29;20509;-85
2022/10/06 02:56:25;;;;;;;3.08;0.50;;;14.40;99.90;;;;;;4863430;29;20223;-83
2022/10/06 02:58:52;;;;;;;1.55;0.40;;;14.40;99.90;;;;;;4878769;29;20179;-85
2022/10/06 03:01:20;;;;;;;2.45;0.50;;;14.40;99.90;;;;;;4861726;29;20608;-85
2022/10/06 03:03:47;;;;;;;1.95;0.85;;;14.40;99.90;;;;;;4864859;29;20568;-84
2022/10/06 03:06:21;;;;;;;1.17;0.47;;;14.40;99.90;;;;;;4849119;29;20245;-85
2022/10/06 03:08:52;;;;;;;1.25;0.50;;;14.40;99.90;;;;;;4848948;29;20173;-84
2022/10/06 03:11:19;;;;;;;1.02;0.40;;;14.40;99.90;;;;;;4848536;29;20548;-84
2022/10/06 03:13:46;;;;;;;1.17;0.47;;;14.30;99.90;;;;;;4848698;29;20184;-85
2022/10/06 03:16:21;;;;;;;0.47;0.35;;;14.30;99.90;;;;;;4865175;29;20208;-83
2022/10/06 03:18:50;;;;;;;1.20;0.40;;;14.30;99.90;;;;;;4848818;29;20206;-85
2022/10/06 03:21:17;;;;;;;1.45;0.38;;;14.20;99.90;;;;;;4848871;29;20332;-86
2022/10/06 03:23:45;;;;;;;3.13;0.40;;;14.10;99.90;;;;;;4848665;29;20177;-85
2022/10/06 03:26:11;;;;;;;0.85;0.40;;;14.10;99.90;;;;;;4848416;29;20181;-84
2022/10/06 03:28:39;;;;;;;0.73;0.50;;;14.10;99.90;;;;;;4848544;29;20208;-86
2022/10/06 03:31:06;;;;;;;1.55;0.52;;;14.10;99.90;;;;;;4848504;29;20244;-85
2022/10/06 03:33:34;;;;;;;2.85;0.45;;;14.10;99.90;;;;;;4848407;29;20181;-91
2022/10/06 03:36:08;;;;;;;1.75;0.30;;;14.10;99.90;;;;;;4848455;29;20212;-87
2022/10/06 03:38:35;;;;;;;2.55;0.50;;;14.00;99.90;;;;;;4864933;29;20168;-85
2022/10/06 03:41:12;;;;;;;6.43;0.50;;;14.00;99.90;;;;;;4848126;29;20655;-87
2022/10/06 03:43:43;;;;;;;1.25;0.50;;;13.90;99.90;;;;;;4848339;29;20188;-86
2022/10/06 03:46:10;;;;;;;6.13;0.73;;;13.90;99.90;;;;;;4848447;29;20555;-87
2022/10/06 03:48:36;;;;;;;3.28;0.40;;;13.80;99.90;;;;;;4864917;29;20609;-88
2022/10/06 03:51:23;;;;;;;1.42;0.70;;;13.90;99.90;;;;;;4848311;29;20188;-84
2022/10/06 03:53:50;;;;;;;3.67;0.85;;;13.80;99.90;;;;;;4864432;29;20196;-86
2022/10/06 03:56:22;;;;;;;4.68;0.57;;;13.70;99.90;;;;;;4864518;29;20215;-86
2022/10/06 03:58:51;;;;;;;2.65;0.73;;;13.80;99.90;;;;;;4849353;29;20492;-86
2022/10/06 04:01:23;;;;;;;3.72;0.60;;;13.70;99.90;;;;;;4866301;29;20188;-86
2022/10/06 04:03:49;;;;;;;4.45;0.80;;;13.70;99.90;;;;;;4866490;29;20212;-86
2022/10/06 04:06:17;;;;;;;4.22;0.60;;;13.70;99.90;;;;;;4866356;29;20222;-87
2022/10/06 04:08:44;;;;;;;4.82;0.68;;;13.70;99.90;;;;;;4882956;29;20188;-85
2022/10/06 04:11:13;;;;;;;4.80;0.60;;;13.60;99.90;;;;;;4862068;29;20228;-85
2022/10/06 04:13:41;;;;;;;1.90;0.80;;;13.60;99.90;;;;;;4862776;29;20240;-86
2022/10/06 04:16:13;;;;;;;5.28;0.80;;;13.50;99.90;;;;;;4864319;29;20208;-85
2022/10/06 04:18:40;;;;;;;2.70;0.73;;;13.50;99.90;;;;;;4864149;29;21073;-87
2022/10/06 04:21:06;;;;;;;4.97;1.00;;;13.50;99.90;;;;;;4863008;29;20600;-86
2022/10/06 04:23:33;;;;;;;2.03;0.65;;;13.40;99.90;;;;;;4863071;29;20275;-86
2022/10/06 04:26:05;;;;;;;4.20;0.80;;;13.50;99.90;;;;;;4864283;29;20251;-83
2022/10/06 04:28:31;;;;;;;4.35;0.77;;;13.40;99.90;;;;;;4864241;29;20312;-87
2022/10/06 04:31:01;;;;;;;4.40;0.90;;;13.40;99.90;;;;;;4863046;29;20188;-86
2022/10/06 04:33:29;;;;;;;3.00;0.60;;;13.40;99.90;;;;;;4862714;29;20279;-88
2022/10/06 04:35:59;;;;;;;5.90;1.17;;;13.40;99.90;;;;;;4863904;29;20212;-85
2022/10/06 04:38:27;;;;;;;4.78;1.10;;;13.50;99.90;;;;;;4862773;29;20193;-84
2022/10/06 04:40:53;;;;;;;5.25;0.85;;;13.40;99.90;;;;;;4862820;29;20192;-87
2022/10/06 04:43:19;;;;;;;7.40;0.80;;;13.30;99.90;;;;;;4862362;29;20188;-86
2022/10/06 04:45:45;;;;;;;4.55;0.98;;;13.40;99.90;;;;;;4863697;29;20255;-84
2022/10/06 04:48:10;;;;;;;5.35;0.82;;;13.30;99.90;;;;;;4862426;29;20189;-87
2022/10/06 04:50:36;;;;;;;5.00;0.93;;;13.30;99.90;;;;;;4862587;29;20621;-86
2022/10/06 04:53:02;;;;;;;5.60;1.10;;;13.20;99.90;;;;;;4862755;29;20191;-87
2022/10/06 04:55:28;;;;;;;4.03;0.73;;;13.20;99.90;;;;;;4863658;29;20216;-87
2022/10/06 04:57:54;;;;;;;5.28;1.05;;;13.20;99.90;;;;;;4861551;29;20211;-86
2022/10/06 05:00:24;;;;;;;3.28;0.90;;;13.20;99.90;;;;;;4863564;29;20271;-85
2022/10/06 05:02:52;;;;;;;6.22;1.05;;;13.20;99.90;;;;;;4862202;29;20193;-85
2022/10/06 05:05:19;;;;;;;9.73;1.00;;;13.20;99.90;;;;;;4862450;29;20188;-86
2022/10/06 05:07:44;;;;;;;7.30;0.93;;;13.20;99.90;;;;;;4862294;29;20177;-87
2022/10/06 05:10:11;;;;;;;6.95;1.13;;;13.20;99.90;;;;;;4862098;29;20758;-87
2022/10/06 05:12:36;;;;;;;5.47;1.40;;;13.20;99.90;;;;;;4861756;29;20276;-85
2022/10/06 05:15:02;;;;;;;3.53;1.00;;;13.20;99.90;;;;;;4861790;29;20295;-86
2022/10/06 05:17:28;;;;;;;2.05;0.73;;;13.20;99.90;;;;;;4862208;29;20188;-85
2022/10/06 05:19:54;;;;;;;5.90;1.27;;;13.20;99.90;;;;;;4862072;29;20195;-86
2022/10/06 05:22:20;;;;;;;3.20;1.35;;;13.20;99.90;;;;;;4863165;29;20197;-85
2022/10/06 05:24:48;;;;;;;6.95;1.25;;;13.20;99.90;;;;;;4875383;29;20534;-86
2022/10/06 05:27:14;;;;;;;6.10;0.90;;;13.20;99.90;;;;;;4881488;29;20503;-85
2022/10/06 05:29:40;;;;;;;7.57;1.30;;;13.20;99.90;;;;;;4864843;29;20184;-86
2022/10/06 05:32:06;;;;;;;6.90;1.17;;;13.20;99.90;;;;;;4872145;29;20838;-84
2022/10/06 05:34:32;;;;;;;4.70;1.25;;;13.20;99.90;;;;;;4859665;29;20193;-86
2022/10/06 05:36:58;;;;;;;9.43;1.45;;;13.20;99.90;;;;;;4860844;29;20657;-84
2022/10/06 05:39:23;;;;;;;10.15;1.20;;;13.20;99.90;;;;;;4861084;29;20639;-84
2022/10/06 05:41:50;;;;;;;6.85;1.38;;;13.20;99.90;;;;;;4861058;29;20352;-84
2022/10/06 05:44:16;;;;;;;4.65;0.98;;;13.20;99.90;;;;;;4860952;29;20181;-84
2022/10/06 05:46:41;;;;;;;6.65;1.42;;;13.20;99.90;;;;;;4861019;29;20196;-85
2022/10/06 05:49:09;;;;;;;6.78;1.10;;;13.30;99.90;;;;;;4861865;29;20208;-84
2022/10/06 05:51:35;;;;;;;5.82;0.93;;;13.30;99.90;;;;;;4860866;29;20511;-86
2022/10/06 05:54:02;;;;;;;8.02;1.25;;;13.40;99.90;;;;;;4861608;29;20192;-85
2022/10/06 05:56:29;;;;;;;4.88;1.20;;;13.40;99.90;;;;;;4879256;29;20208;-85
2022/10/06 05:58:56;;;;;;;5.68;0.95;;;13.30;99.90;;;;;;4871960;29;20555;-87
2022/10/06 06:01:45;;;;;;;4.72;1.17;;;13.40;99.90;;;;;;4863325;29;20197;-85
2022/10/06 06:04:12;;;;;;;7.75;1.50;;;13.40;99.90;;;;;;4878056;29;20230;-87
2022/10/06 06:06:40;;;;;;;8.75;1.25;;;13.40;99.90;;;;;;4880703;29;20224;-85
2022/10/06 06:09:11;;;;;;;12.90;1.30;;;13.50;99.90;;;;;;4879345;29;20567;-85
2022/10/06 06:11:43;;;;;;;9.55;1.55;;;13.50;99.90;;;;;;4878721;29;20239;-84
2022/10/06 06:14:11;;;;;;;5.82;1.33;;;13.50;99.90;;;;;;4880439;29;20248;-84
2022/10/06 06:16:38;;;;;;;4.28;1.10;;;13.60;99.90;;;;;;4870766;29;20227;-85
2022/10/06 06:19:06;;;;;;;11.00;1.30;;;13.50;99.90;;;;;;4860997;29;20554;-83
2022/10/06 06:21:32;;;;;;;5.65;1.48;;;13.60;99.90;;;;;;4860373;29;20188;-84
2022/10/06 06:23:58;;;;;;;10.02;1.58;;;13.60;99.90;;;;;;4860304;29;20185;-84
2022/10/06 06:26:26;;;;;;;9.05;1.42;;;13.60;99.90;;;;;;4861349;29;20240;-85
2022/10/06 06:28:53;;;;;;;5.32;1.10;;;13.60;99.90;;;;;;4859423;29;20275;-87
2022/10/06 06:31:25;;;;;;;6.35;1.10;;;13.60;99.90;;;;;;4860511;29;20180;-86
2022/10/06 06:33:53;;;;;;;4.55;1.38;;;13.60;99.90;;;;;;4861442;29;20196;-84
2022/10/06 06:36:39;;;;;;;5.93;1.38;;;13.60;99.90;;;;;;4872538;29;20311;-85
2022/10/06 06:39:10;;;;;;;5.95;1.00;;;13.60;99.90;;;;;;4891424;29;20202;-82
2022/10/06 06:41:39;;;;;;;8.45;1.73;;;13.60;99.90;;;;;;4860279;29;20192;-86
2022/10/06 06:44:07;;;;;;;7.57;1.48;;;13.60;99.90;;;;;;4861181;29;20260;-85
2022/10/06 06:46:33;;;;;;;5.53;1.20;;;13.60;99.90;;;;;;4891211;29;20180;-86
2022/10/06 06:49:03;;;;;;;7.78;1.27;;;13.60;99.90;;;;;;4861604;29;20188;-85
2022/10/06 06:51:40;;;;;;;4.57;1.23;;;13.60;99.90;;;;;;4860636;29;20191;-85
2022/10/06 06:54:08;;;;;;;8.75;1.20;;;13.60;99.90;;;;;;4867007;29;20274;-87
2022/10/06 06:56:34;;;;;;;8.95;1.63;;;13.60;99.90;;;;;;4894029;29;20219;-86
2022/10/06 06:59:01;;;;;;;4.47;1.17;;;13.60;99.90;;;;;;4874226;29;20192;-85
2022/10/06 07:01:27;;;;;;;8.00;1.30;;;13.50;99.90;;;;;;4879155;29;20195;-87
2022/10/06 07:03:59;;;;;;;8.63;1.48;;;13.50;99.90;;;;;;4858825;29;20184;-85
2022/10/06 07:06:27;;;;;;;8.30;1.27;;;13.50;99.90;;;;;;4860513;29;20181;-84
2022/10/06 07:08:53;;;;;;;9.55;1.60;;;13.50;99.90;;;;;;4861248;29;20514;-86
2022/10/06 07:11:39;;;;;;;9.70;2.40;;;13.50;99.90;;;;;;4873904;29;20710;-84
2022/10/06 07:14:08;;;;;;;6.50;1.60;;;13.50;99.90;;;;;;4879303;29;20559;-85
2022/10/06 07:25:09;;;;;;;11.63;1.60;;;13.70;99.90;;;;;;4861053;29;20196;-85
2022/10/06 07:27:41;;;;;;;7.80;1.30;;;13.80;99.90;;;;;;4844585;29;20172;-84
2022/10/06 07:30:10;;;;;;;12.45;1.40;;;13.80;99.90;;;;;;4844212;29;20267;-86
2022/10/06 07:32:37;;;;;;;5.72;1.10;;;13.80;99.90;;;;;;4861145;29;20185;-86
2022/10/06 07:35:05;;;;;;;5.50;1.23;;;13.90;99.90;;;;;;4861002;29;20268;-86
2022/10/06 07:37:33;;;;;;;9.23;1.42;;;13.90;99.90;;;;;;4874299;29;20188;-87
2022/10/06 07:39:59;;;;;;;7.03;1.35;;;14.00;99.90;;;;;;4878243;29;20275;-85
2022/10/06 07:42:25;;;;;;;6.00;1.52;;;14.00;99.90;;;;;;4844055;29;20241;-84
2022/10/06 07:47:37;;;;;;;7.90;1.33;;;14.00;99.90;;;;;;4898401;29;20226;-87
2022/10/06 07:50:07;;;;;;;8.55;1.38;;;14.00;99.90;;;;;;4893178;29;20219;-85
2022/10/06 07:52:35;;;;;;;11.40;1.67;;;14.00;99.90;;;;;;4883272;29;20176;-89
2022/10/06 07:55:01;;;;;;;6.65;1.25;;;14.10;99.90;;;;;;4884378;29;20322;-86
2022/10/06 07:57:33;;;;;;;3.63;1.48;;;14.20;99.90;;;;;;4874017;29;20679;-90
2022/10/06 07:59:59;;;;;;;5.53;1.17;;;14.20;99.90;;;;;;4882866;29;20165;-85
2022/10/06 08:02:25;;;;;;;7.05;1.67;;;14.20;99.90;;;;;;4882258;29;20196;-88
2022/10/06 08:04:51;;;;;;;11.32;1.35;;;14.30;99.90;;;;;;4881443;29;20528;-84
2022/10/06 08:07:17;;;;;;;9.25;1.92;;;14.30;99.90;;;;;;4881555;29;20176;-87
2022/10/06 08:09:43;;;;;;;6.43;1.17;;;14.30;99.90;;;;;;4881294;29;20567;-83
2022/10/06 08:14:53;;;;;;;9.90;1.55;;;14.30;99.90;;;;;;4882323;29;20260;-89
2022/10/06 08:17:19;;;;;;;6.55;1.40;;;14.30;99.90;;;;;;4885119;29;20180;-83
2022/10/06 08:19:46;;;;;;;11.65;1.35;;;14.30;99.90;;;;;;4865605;29;20291;-84
2022/10/06 08:22:14;;;;;;;8.65;1.40;;;14.30;99.90;;;;;;4882733;29;20172;-84
2022/10/06 08:24:40;;;;;;;4.43;1.15;;;14.30;99.90;;;;;;4873782;29;20191;-85
2022/10/06 08:27:08;;;;;;;7.75;2.05;;;14.40;99.90;;;;;;4900537;29;20607;-84
2022/10/06 08:29:34;;;;;;;8.52;1.52;;;14.40;99.90;;;;;;4882251;29;20688;-86
2022/10/06 08:32:00;;;;;;;6.03;1.15;;;14.50;99.90;;;;;;4881968;29;20304;-85
2022/10/06 08:34:26;;;;;;;15.60;1.70;;;14.50;99.90;;;;;;4865240;29;20286;-84
2022/10/06 08:36:52;;;;;;;6.10;1.08;;;14.60;99.90;;;;;;4865115;29;20307;-85
2022/10/06 08:53:15;;;;;;;9.73;1.15;;;15.00;99.90;;;;;;4885716;29;20323;-88
2022/10/06 08:56:16;;;;;;;10.65;1.38;;;15.10;99.90;;;;;;4883453;29;20264;-85
2022/10/06 08:58:56;;;;;;;5.57;1.10;;;15.10;99.90;;;;;;4846778;29;20176;-87
2022/10/06 09:01:27;;;;;;;7.55;1.13;;;15.10;99.90;;;;;;4847082;29;20192;-86
2022/10/06 09:04:04;;;;;;;5.80;0.95;;;15.00;99.90;;;;;;4846704;29;20184;-87
2022/10/06 09:06:48;;;;;;;5.72;1.27;;;14.90;99.90;;;;;;4846672;29;20232;-87
2022/10/06 09:09:42;;;;;;;5.15;1.02;;;14.90;99.90;;;;;;4863147;29;20241;-85
2022/10/06 09:12:28;;;;;;;7.43;1.45;;;14.90;99.90;;;;;;4842134;29;20716;-85
2022/10/06 09:15:14;;;;;;;8.27;1.25;;;15.10;99.90;;;;;;4842862;29;20231;-86
2022/10/06 09:17:54;;;;;;;5.85;1.38;;;15.10;99.90;;;;;;4831534;29;20197;-85
2022/10/06 09:20:33;;;;;;;8.35;1.02;;;15.20;99.90;;;;;;4843262;29;20189;-86
2022/10/06 09:23:01;;;;;;;5.55;1.50;;;15.30;99.90;;;;;;4843125;29;20178;-84
2022/10/06 09:25:28;;;;;;;5.10;0.93;;;15.40;99.90;;;;;;4842758;29;20194;-87
2022/10/06 09:27:56;;;;;;;4.75;1.10;;;15.40;99.90;;;;;;4848103;29;20169;-85
2022/10/06 09:30:23;;;;;;;4.38;1.05;;;15.40;99.90;;;;;;4861540;29;20623;-87
2022/10/06 09:32:58;;;;;;;6.38;0.77;;;15.40;99.90;;;;;;4861469;29;20188;-86
2022/10/06 09:35:26;;;;;;;6.30;1.00;;;15.40;99.90;;;;;;4861558;29;20215;-85
2022/10/06 09:38:00;;;;;;;5.70;1.02;;;15.50;99.90;;;;;;4861410;29;20184;-87
2022/10/06 09:40:47;;;;;;;4.97;1.15;;;15.50;99.90;;;;;;4854738;29;20189;-83
2022/10/06 09:43:30;;;;;;;8.88;1.33;;;15.50;99.90;;;;;;4824703;29;20178;-84
2022/10/06 09:46:27;;;;;;;10.60;1.23;;;15.40;99.90;;;;;;4824599;29;20189;-88
2022/10/06 09:49:11;;;;;;;8.30;1.10;;;15.60;99.90;;;;;;4839582;29;20185;-86
2022/10/06 09:51:37;;;;;;;7.93;1.45;;;15.70;99.90;;;;;;4824473;29;20257;-85
2022/10/06 09:54:13;;;;;;;8.20;1.08;;;15.80;99.90;;;;;;4852338;29;20664;-87
2022/10/06 09:56:44;;;;;;;6.13;1.30;;;16.00;99.90;;;;;;4860878;29;20363;-85
2022/10/06 09:59:28;;;;;;;5.28;1.30;;;16.10;99.90;;;;;;4843140;29;20178;-85
2022/10/06 10:01:58;;;;;;;7.32;1.48;;;16.10;99.90;;;;;;4844735;29;20209;-84
2022/10/06 10:04:29;;;;;;;6.15;1.27;;;16.20;99.90;;;;;;4847316;29;20639;-85
2022/10/06 10:07:19;;;;;;;7.72;0.85;;;16.20;99.90;;;;;;4848385;29;20599;-84
2022/10/06 10:09:45;;;;;;;10.45;1.15;;;16.20;99.90;;;;;;4845319;29;20213;-85
2022/10/06 10:12:23;;;;;;;8.25;1.15;;;16.20;99.90;;;;;;4862461;29;20683;-84
2022/10/06 10:14:50;;;;;;;7.53;1.23;;;16.20;99.90;;;;;;4864830;29;20184;-85
2022/10/06 10:17:19;;;;;;;5.57;1.25;;;16.10;99.90;;;;;;4867370;29;20282;-87
2022/10/06 10:19:52;;;;;;;6.07;0.90;;;16.10;99.80;;;;;;4879133;29;20224;-84
2022/10/06 10:22:33;;;;;;;4.90;1.10;;;16.30;99.90;;;;;;4880347;29;20244;-83
2022/10/06 10:25:34;;;;;;;5.50;0.95;;;16.30;99.90;;;;;;4878675;29;20180;-83
2022/10/06 10:28:25;;;;;;;6.10;1.38;;;16.40;99.90;;;;;;4877760;29;20635;-84
2022/10/06 10:31:08;;;;;;;4.57;1.15;;;16.30;99.80;;;;;;4834471;29;20192;-84
2022/10/06 10:33:54;;;;;;;6.47;0.93;;;16.30;99.90;;;;;;4844982;29;20211;-85
2022/10/06 10:36:27;;;;;;;4.28;0.75;;;16.20;99.90;;;;;;4844894;29;20204;-84
2022/10/06 10:38:54;;;;;;;8.07;1.17;;;16.30;99.90;;;;;;4869760;29;20211;-85
2022/10/06 10:41:27;;;;;;;4.32;1.20;;;16.40;99.90;;;;;;4879836;29;20187;-82
2022/10/06 10:44:09;;;;;;;5.85;1.48;;;16.50;99.90;;;;;;4879856;29;20194;-84
2022/10/06 10:47:24;;;;;;;8.80;1.35;;;16.60;99.90;;;;;;4880108;29;20168;-84
2022/10/06 10:50:06;;;;;;;4.82;1.00;;;16.70;99.90;;;;;;4856314;29;20195;-84
2022/10/06 10:52:40;;;;;;;3.40;1.02;;;16.80;99.90;;;;;;4862344;29;20210;-85
2022/10/06 10:55:34;;;;;;;6.90;1.13;;;16.80;99.20;;;;;;4863109;29;20299;-85
2022/10/06 10:58:10;;;;;;;5.45;1.02;;;16.80;99.50;;;;;;4879338;29;20566;-85
2022/10/06 11:00:41;;;;;;;5.30;1.15;;;16.80;99.80;;;;;;4863068;29;20183;-85
2022/10/06 11:03:09;;;;;;;5.63;1.17;;;16.70;99.50;;;;;;4879363;29;20620;-85
2022/10/06 11:05:53;;;;;;;5.22;1.25;;;16.70;99.00;;;;;;4863071;29;20534;-87
2022/10/06 11:08:34;;;;;;;8.55;1.65;;;16.80;98.20;;;;;;4894396;29;20258;-87
2022/10/06 11:11:03;;;;;;;9.05;1.27;;;16.80;99.40;;;;;;4862922;29;20234;-84
2022/10/06 11:13:41;;;;;;;3.08;1.15;;;16.80;98.30;;;;;;4879572;29;20180;-86
2022/10/06 11:16:06;;;;;;;6.80;1.00;;;16.90;98.00;;;;;;4893548;29;20777;-85
2022/10/06 11:18:42;;;;;;;6.93;1.20;;;17.00;98.70;;;;;;4879685;29;20259;-84
2022/10/06 11:21:33;;;;;;;5.63;1.13;;;17.00;98.50;;;;;;4861429;29;20205;-81
2022/10/06 11:24:17;;;;;;;6.00;1.02;;;17.10;97.40;;;;;;4863110;29;20281;-83
2022/10/06 11:26:47;;;;;;;6.10;1.08;;;17.10;97.60;;;;;;4851659;29;20203;-84
2022/10/06 11:29:44;;;;;;;3.83;0.82;;;17.10;98.00;;;;;;4882975;29;20179;-83
2022/10/06 11:32:32;;;;;;;6.07;1.10;;;16.90;98.20;;;;;;4881866;29;20190;-85
2022/10/06 11:34:58;;;;;;;5.22;1.02;;;16.90;97.40;;;;;;4881929;29;20211;-86
2022/10/06 11:37:39;;;;;;;4.07;0.95;;;17.00;98.40;;;;;;4882288;29;20581;-82
2022/10/06 11:40:41;;;;;;;7.40;1.00;;;17.10;97.20;;;;;;4866062;29;20184;-86
2022/10/06 11:43:22;;;;;;;6.35;1.20;;;17.20;95.80;;;;;;4866280;29;20180;-84
2022/10/06 11:46:06;;;;;;;5.40;1.25;;;17.30;96.20;;;;;;4866183;29;20172;-85
2022/10/06 11:48:32;;;;;;;6.15;1.23;;;17.30;96.10;;;;;;4866013;29;20593;-86
2022/10/06 11:51:16;;;;;;;5.65;1.08;;;17.30;97.20;;;;;;4866149;29;20183;-86
2022/10/06 11:53:43;;;;;;;7.70;1.00;;;17.40;96.80;;;;;;4865469;29;20583;-83
2022/10/06 11:56:17;;;;;;;4.88;1.10;;;17.50;98.00;;;;;;4893643;29;20226;-83
2022/10/06 11:58:55;;;;;;;4.20;1.08;;;17.60;97.10;;;;;;4874725;29;20326;-84
2022/10/06 12:01:27;;;;;;;4.13;0.82;;;17.70;94.90;;;;;;4865976;29;20525;-83
2022/10/06 12:04:14;;;;;;;4.88;1.08;;;17.80;96.70;;;;;;4881732;29;20509;-85
2022/10/06 12:06:46;;;;;;;4.25;0.90;;;17.90;96.50;;;;;;4866135;29;20244;-83
2022/10/06 12:09:32;;;;;;;5.40;0.93;;;17.90;94.90;;;;;;4865982;29;20183;-86
2022/10/06 12:11:59;;;;;;;8.15;1.20;;;17.90;97.10;;;;;;4876578;29;20202;-87
2022/10/06 12:14:47;;;;;;;4.88;1.00;;;17.90;96.80;;;;;;4884131;29;20187;-85
2022/10/06 12:17:29;;;;;;;4.82;0.98;;;17.90;96.70;;;;;;4879650;29;20195;-84
2022/10/06 12:20:22;;;;;;;4.78;1.02;;;17.90;97.40;;;;;;4882057;29;20179;-83
2022/10/06 12:23:09;;;;;;;2.78;1.10;;;18.00;95.70;;;;;;4865960;29;20168;-84
2022/10/06 12:25:59;;;;;;;7.20;0.95;;;18.10;96.00;;;;;;4865743;29;20267;-83
2022/10/06 12:28:37;;;;;;;2.50;0.70;;;18.10;95.40;;;;;;4865322;29;20240;-83
2022/10/06 12:31:28;;;;;;;6.88;0.88;;;18.20;95.90;;;;;;4865383;29;20192;-86
2022/10/06 12:33:54;;;;;;;5.20;1.00;;;18.20;94.90;;;;;;4881138;29;20180;-84
2022/10/06 12:36:27;;;;;;;4.68;0.93;;;18.20;96.60;;;;;;4865372;29;20531;-83
2022/10/06 12:39:22;;;;;;;3.38;0.90;;;18.30;95.50;;;;;;4881668;29;20194;-89
2022/10/06 12:42:05;;;;;;;8.93;1.55;;;18.40;95.60;;;;;;4883840;29;20502;-86
2022/10/06 12:44:41;;;;;;;4.13;1.02;;;18.50;95.50;;;;;;4880723;29;20188;-81
2022/10/06 12:47:14;;;;;;;4.90;1.17;;;18.50;94.50;;;;;;4880731;29;20659;-83
2022/10/06 12:50:21;;;;;;;5.93;1.23;;;18.50;94.70;;;;;;4881231;29;20184;-83
2022/10/06 12:52:51;;;;;;;7.55;1.00;;;18.50;94.90;;;;;;4869224;29;20258;-85
2022/10/06 12:55:27;;;;;;;9.00;1.33;;;18.50;96.10;;;;;;4883376;29;20202;-84
2022/10/06 12:57:53;;;;;;;6.30;0.90;;;18.60;95.20;;;;;;4892146;29;20187;-85
2022/10/06 13:00:38;;;;;;;3.75;1.00;;;18.50;95.10;;;;;;4864765;29;20255;-85
2022/10/06 13:03:07;;;;;;;4.78;1.00;;;18.60;94.60;;;;;;4882971;29;20182;-84
2022/10/06 13:05:35;;;;;;;5.10;1.10;;;18.60;96.10;;;;;;4900058;29;20256;-85
2022/10/06 13:08:02;;;;;;;3.95;1.08;;;18.60;95.50;;;;;;4883399;29;20221;-84
2022/10/06 13:10:28;;;;;;;2.60;0.90;;;18.50;94.40;;;;;;4897032;29;20267;-86
2022/10/06 13:12:56;;;;;;;5.10;1.40;;;18.50;94.20;;;;;;4874845;29;20282;-85
2022/10/06 13:15:34;;;;;;;6.40;1.05;;;18.30;94.60;;;;;;4883029;29;20713;-85
2022/10/06 13:18:13;;;;;;;5.88;0.93;;;18.30;95.10;;;;;;4883222;29;20179;-84
2022/10/06 13:20:48;;;;;;;5.07;0.85;;;18.20;94.60;;;;;;4883239;29;20179;-85
2022/10/06 13:23:36;;;;;;;6.22;1.40;;;18.20;95.20;;;;;;4883111;29;20179;-83
2022/10/06 13:26:23;;;;;;;5.13;0.90;;;18.20;94.80;;;;;;4882842;29;20240;-84
2022/10/06 13:28:51;;;;;;;14.00;1.00;;;18.20;95.40;;;;;;4862371;29;20277;-84
2022/10/06 13:31:31;;;;;;;3.65;0.82;;;18.30;94.30;;;;;;4846000;29;20242;-83
2022/10/06 13:34:04;;;;;;;5.00;0.90;;;18.30;93.90;;;;;;4845810;29;20195;-85
2022/10/06 13:36:35;;;;;;;6.97;1.30;;;18.30;94.70;;;;;;4859544;29;20724;-85